Aviation Digital Data Service (ADDS)

Output produced by METARs form (1901 UTC 25 March 2019)
found at http://www.aviationweather.gov/metar/data/
 
METAR text: ZHCC 251800Z VRB01MPS CAVOK 12/02 Q1016 NOSIG
Conditions at: ZHCC (ZHENGZHOU , CN) observed 1800 UTC 25 March 2019
Temperature: 12.0°C (54°F)
Dewpoint: 2.0°C (36°F) [RH = 50%]
Pressure (altimeter): 30.00 inches Hg (1016.0 mb)
Winds: variable direction winds at 2 MPH (2 knots; 1.0 m/s)
Visibility: 6 or more miles (10+ km)
Ceiling: ceiling and visibility are OK
Clouds: unknown
Weather: no significant weather observed at this time

METAR text: ZHCC 251700Z 22002MPS 190V260 CAVOK 15/01 Q1016 NOSIG
Conditions at: ZHCC (ZHENGZHOU , CN) observed 1700 UTC 25 March 2019
Temperature: 15.0°C (59°F)
Dewpoint: 1.0°C (34°F) [RH = 39%]
Pressure (altimeter): 30.00 inches Hg (1016.0 mb)
Winds: from the SW (220 degrees) at 5 MPH (4 knots; 2.1 m/s)
Visibility: 6 or more miles (10+ km)
Ceiling: ceiling and visibility are OK
Clouds: unknown
Weather: no significant weather observed at this time

METAR text: ZHCC 251600Z 23003MPS CAVOK 17/02 Q1016 NOSIG
Conditions at: ZHCC (ZHENGZHOU , CN) observed 1600 UTC 25 March 2019
Temperature: 17.0°C (63°F)
Dewpoint: 2.0°C (36°F) [RH = 36%]
Pressure (altimeter): 30.00 inches Hg (1016.0 mb)
Winds: from the SW (230 degrees) at 7 MPH (6 knots; 3.1 m/s)
Visibility: 6 or more miles (10+ km)
Ceiling: ceiling and visibility are OK
Clouds: unknown
Weather: no significant weather observed at this time

METAR text: ZHCC 251500Z 24003MPS 200V270 CAVOK 17/02 Q1015 NOSIG
Conditions at: ZHCC (ZHENGZHOU , CN) observed 1500 UTC 25 March 2019
Temperature: 17.0°C (63°F)
Dewpoint: 2.0°C (36°F) [RH = 36%]
Pressure (altimeter): 29.97 inches Hg (1015.0 mb)
Winds: from the WSW (240 degrees) at 7 MPH (6 knots; 3.1 m/s)
Visibility: 6 or more miles (10+ km)
Ceiling: ceiling and visibility are OK
Clouds: unknown
Weather: no significant weather observed at this time

METAR text: ZHCC 251400Z 23003MPS 190V260 CAVOK 18/M01 Q1015 NOSIG
Conditions at: ZHCC (ZHENGZHOU , CN) observed 1400 UTC 25 March 2019
Temperature: 18.0°C (64°F)
Dewpoint: -1.0°C (30°F) [RH = 28%]
Pressure (altimeter): 29.97 inches Hg (1015.0 mb)
Winds: from the SW (230 degrees) at 7 MPH (6 knots; 3.1 m/s)
Visibility: 6 or more miles (10+ km)
Ceiling: ceiling and visibility are OK
Clouds: unknown
Weather: no significant weather observed at this time

METAR text: ZHCC 251300Z 22004MPS 190V250 CAVOK 19/00 Q1014 NOSIG
Conditions at: ZHCC (ZHENGZHOU , CN) observed 1300 UTC 25 March 2019
Temperature: 19.0°C (66°F)
Dewpoint: 0.0°C (32°F) [RH = 28%]
Pressure (altimeter): 29.94 inches Hg (1014.0 mb)
Winds: from the SW (220 degrees) at 9 MPH (8 knots; 4.1 m/s)
Visibility: 6 or more miles (10+ km)
Ceiling: ceiling and visibility are OK
Clouds: unknown
Weather: no significant weather observed at this time

METAR text: ZHCC 251200Z 20004MPS 160V230 CAVOK 20/M08 Q1014 NOSIG
Conditions at: ZHCC (ZHENGZHOU , CN) observed 1200 UTC 25 March 2019
Temperature: 20.0°C (68°F)
Dewpoint: -8.0°C (18°F) [RH = 14%]
Pressure (altimeter): 29.94 inches Hg (1014.0 mb)
Winds: from the SSW (200 degrees) at 9 MPH (8 knots; 4.1 m/s)
Visibility: 6 or more miles (10+ km)
Ceiling: ceiling and visibility are OK
Clouds: unknown
Weather: no significant weather observed at this time

METAR text: ZHCC 251100Z 22002MPS CAVOK 21/M11 Q1013 NOSIG
Conditions at: ZHCC (ZHENGZHOU , CN) observed 1100 UTC 25 March 2019
Temperature: 21.0°C (70°F)
Dewpoint: -11.0°C (12°F) [RH = 11%]
Pressure (altimeter): 29.91 inches Hg (1013.0 mb)
Winds: from the SW (220 degrees) at 5 MPH (4 knots; 2.1 m/s)
Visibility: 6 or more miles (10+ km)
Ceiling: ceiling and visibility are OK
Clouds: unknown
Weather: no significant weather observed at this time

METAR text: ZHCC 251000Z 23003MPS 190V260 CAVOK 23/M13 Q1012 NOSIG
Conditions at: ZHCC (ZHENGZHOU , CN) observed 1000 UTC 25 March 2019
Temperature: 23.0°C (73°F)
Dewpoint: -13.0°C ( 9°F) [RH =  8%]
Pressure (altimeter): 29.88 inches Hg (1012.0 mb)
Winds: from the SW (230 degrees) at 7 MPH (6 knots; 3.1 m/s)
Visibility: 6 or more miles (10+ km)
Ceiling: ceiling and visibility are OK
Clouds: unknown
Weather: no significant weather observed at this time

METAR text: ZHCC 250900Z 29004MPS CAVOK 24/M14 Q1012 NOSIG
Conditions at: ZHCC (ZHENGZHOU , CN) observed 0900 UTC 25 March 2019
Temperature: 24.0°C (75°F)
Dewpoint: -14.0°C ( 7°F) [RH =  7%]
Pressure (altimeter): 29.88 inches Hg (1012.0 mb)
Winds: from the WNW (290 degrees) at 9 MPH (8 knots; 4.1 m/s)
Visibility: 6 or more miles (10+ km)
Ceiling: ceiling and visibility are OK
Clouds: unknown
Weather: no significant weather observed at this time

METAR text: ZHCC 250800Z 28003MPS 210V360 CAVOK 24/M15 Q1012 NOSIG
Conditions at: ZHCC (ZHENGZHOU , CN) observed 0800 UTC 25 March 2019
Temperature: 24.0°C (75°F)
Dewpoint: -15.0°C ( 5°F) [RH =  6%]
Pressure (altimeter): 29.88 inches Hg (1012.0 mb)
Winds: from the W (280 degrees) at 7 MPH (6 knots; 3.1 m/s)
Visibility: 6 or more miles (10+ km)
Ceiling: ceiling and visibility are OK
Clouds: unknown
Weather: no significant weather observed at this time

METAR text: ZHCC 250700Z 34003MPS 310V020 CAVOK 25/M13 Q1013 NOSIG
Conditions at: ZHCC (ZHENGZHOU , CN) observed 0700 UTC 25 March 2019
Temperature: 25.0°C (77°F)
Dewpoint: -13.0°C ( 9°F) [RH =  7%]
Pressure (altimeter): 29.91 inches Hg (1013.0 mb)
Winds: from the NNW (340 degrees) at 7 MPH (6 knots; 3.1 m/s)
Visibility: 6 or more miles (10+ km)
Ceiling: ceiling and visibility are OK
Clouds: unknown
Weather: no significant weather observed at this time

METAR text: ZHCC 250600Z VRB04MPS CAVOK 24/M16 Q1013 NOSIG
Conditions at: ZHCC (ZHENGZHOU , CN) observed 0600 UTC 25 March 2019
Temperature: 24.0°C (75°F)
Dewpoint: -16.0°C ( 3°F) [RH =  6%]
Pressure (altimeter): 29.91 inches Hg (1013.0 mb)
Winds: variable direction winds at 9 MPH (8 knots; 4.1 m/s)
Visibility: 6 or more miles (10+ km)
Ceiling: ceiling and visibility are OK
Clouds: unknown
Weather: no significant weather observed at this time

METAR text: ZHCC 250500Z 33005MPS 260V360 CAVOK 24/M16 Q1014 NOSIG
Conditions at: ZHCC (ZHENGZHOU , CN) observed 0500 UTC 25 March 2019
Temperature: 24.0°C (75°F)
Dewpoint: -16.0°C ( 3°F) [RH =  6%]
Pressure (altimeter): 29.94 inches Hg (1014.0 mb)
Winds: from the NNW (330 degrees) at 12 MPH (10 knots; 5.1 m/s)
Visibility: 6 or more miles (10+ km)
Ceiling: ceiling and visibility are OK
Clouds: unknown
Weather: no significant weather observed at this time

METAR text: ZHCC 250400Z 32007MPS CAVOK 24/M12 Q1014 NOSIG
Conditions at: ZHCC (ZHENGZHOU , CN) observed 0400 UTC 25 March 2019
Temperature: 24.0°C (75°F)
Dewpoint: -12.0°C (10°F) [RH =  8%]
Pressure (altimeter): 29.94 inches Hg (1014.0 mb)
Winds: from the NW (320 degrees) at 16 MPH (14 knots; 7.2 m/s)
Visibility: 6 or more miles (10+ km)
Ceiling: ceiling and visibility are OK
Clouds: unknown
Weather: no significant weather observed at this time

METAR text: ZHCC 250300Z 31007MPS 260V330 CAVOK 23/M09 Q1015 NOSIG
Conditions at: ZHCC (ZHENGZHOU , CN) observed 0300 UTC 25 March 2019
Temperature: 23.0°C (73°F)
Dewpoint: -9.0°C (16°F) [RH = 11%]
Pressure (altimeter): 29.97 inches Hg (1015.0 mb)
Winds: from the NW (310 degrees) at 16 MPH (14 knots; 7.2 m/s)
Visibility: 6 or more miles (10+ km)
Ceiling: ceiling and visibility are OK
Clouds: unknown
Weather: no significant weather observed at this time

METAR text: ZHCC 250200Z 31009G14MPS CAVOK 21/M08 Q1015 NOSIG
Conditions at: ZHCC (ZHENGZHOU , CN) observed 0200 UTC 25 March 2019
Temperature: 21.0°C (70°F)
Dewpoint: -8.0°C (18°F) [RH = 13%]
Pressure (altimeter): 29.97 inches Hg (1015.0 mb)
Winds: from the NW (310 degrees) at 20 MPH (17 knots; 8.7 m/s)
gusting to 31 MPH (27 knots; 13.9 m/s)
Visibility: 6 or more miles (10+ km)
Ceiling: ceiling and visibility are OK
Clouds: unknown
Weather: no significant weather observed at this time

METAR text: ZHCC 250100Z 29008MPS CAVOK 19/M08 Q1014 NOSIG
Conditions at: ZHCC (ZHENGZHOU , CN) observed 0100 UTC 25 March 2019
Temperature: 19.0°C (66°F)
Dewpoint: -8.0°C (18°F) [RH = 15%]
Pressure (altimeter): 29.94 inches Hg (1014.0 mb)
Winds: from the WNW (290 degrees) at 18 MPH (16 knots; 8.2 m/s)
Visibility: 6 or more miles (10+ km)
Ceiling: ceiling and visibility are OK
Clouds: unknown
Weather: no significant weather observed at this time

METAR text: ZHCC 250000Z 26003MPS 7000 NSC 13/00 Q1014 NOSIG
Conditions at: ZHCC (ZHENGZHOU , CN) observed 0000 UTC 25 March 2019
Temperature: 13.0°C (55°F)
Dewpoint: 0.0°C (32°F) [RH = 41%]
Pressure (altimeter): 29.94 inches Hg (1014.0 mb)
Winds: from the W (260 degrees) at 7 MPH (6 knots; 3.1 m/s)
Visibility: 4 miles ( 7 km)
Ceiling: at least 12,000 feet AGL
Clouds: sky clear below 12,000 feet AGL
Weather: no significant weather observed at this time

METAR text: ZHCC 242300Z 27002MPS 230V300 7000 NSC 08/01 Q1014 NOSIG
Conditions at: ZHCC (ZHENGZHOU , CN) observed 2300 UTC 24 March 2019
Temperature: 8.0°C (46°F)
Dewpoint: 1.0°C (34°F) [RH = 61%]
Pressure (altimeter): 29.94 inches Hg (1014.0 mb)
Winds: from the W (270 degrees) at 5 MPH (4 knots; 2.1 m/s)
Visibility: 4 miles ( 7 km)
Ceiling: at least 12,000 feet AGL
Clouds: sky clear below 12,000 feet AGL
Weather: no significant weather observed at this time

METAR text: ZHCC 242200Z 24002MPS 210V270 CAVOK 09/02 Q1013 NOSIG
Conditions at: ZHCC (ZHENGZHOU , CN) observed 2200 UTC 24 March 2019
Temperature: 9.0°C (48°F)
Dewpoint: 2.0°C (36°F) [RH = 61%]
Pressure (altimeter): 29.91 inches Hg (1013.0 mb)
Winds: from the WSW (240 degrees) at 5 MPH (4 knots; 2.1 m/s)
Visibility: 6 or more miles (10+ km)
Ceiling: ceiling and visibility are OK
Clouds: unknown
Weather: no significant weather observed at this time

METAR text: ZHCC 242100Z VRB01MPS CAVOK 06/01 Q1013 NOSIG
Conditions at: ZHCC (ZHENGZHOU , CN) observed 2100 UTC 24 March 2019
Temperature: 6.0°C (43°F)
Dewpoint: 1.0°C (34°F) [RH = 70%]
Pressure (altimeter): 29.91 inches Hg (1013.0 mb)
Winds: variable direction winds at 2 MPH (2 knots; 1.0 m/s)
Visibility: 6 or more miles (10+ km)
Ceiling: ceiling and visibility are OK
Clouds: unknown
Weather: no significant weather observed at this time

METAR text: ZHCC 242000Z 22003MPS 180V250 CAVOK 10/02 Q1013 NOSIG
Conditions at: ZHCC (ZHENGZHOU , CN) observed 2000 UTC 24 March 2019
Temperature: 10.0°C (50°F)
Dewpoint: 2.0°C (36°F) [RH = 57%]
Pressure (altimeter): 29.91 inches Hg (1013.0 mb)
Winds: from the SW (220 degrees) at 7 MPH (6 knots; 3.1 m/s)
Visibility: 6 or more miles (10+ km)
Ceiling: ceiling and visibility are OK
Clouds: unknown
Weather: no significant weather observed at this time

METAR text: ZHCC 241900Z 22002MPS 190V250 CAVOK 11/01 Q1014 NOSIG
Conditions at: ZHCC (ZHENGZHOU , CN) observed 1900 UTC 24 March 2019
Temperature: 11.0°C (52°F)
Dewpoint: 1.0°C (34°F) [RH = 50%]
Pressure (altimeter): 29.94 inches Hg (1014.0 mb)
Winds: from the SW (220 degrees) at 5 MPH (4 knots; 2.1 m/s)
Visibility: 6 or more miles (10+ km)
Ceiling: ceiling and visibility are OK
Clouds: unknown
Weather: no significant weather observed at this time

METAR text: ZHCC 241800Z 21003MPS CAVOK 12/00 Q1014 NOSIG
Conditions at: ZHCC (ZHENGZHOU , CN) observed 1800 UTC 24 March 2019
Temperature: 12.0°C (54°F)
Dewpoint: 0.0°C (32°F) [RH = 44%]
Pressure (altimeter): 29.94 inches Hg (1014.0 mb)
Winds: from the SSW (210 degrees) at 7 MPH (6 knots; 3.1 m/s)
Visibility: 6 or more miles (10+ km)
Ceiling: ceiling and visibility are OK
Clouds: unknown
Weather: no significant weather observed at this time

METAR text: ZHCC 241700Z 20003MPS 170V230 CAVOK 12/00 Q1014 NOSIG
Conditions at: ZHCC (ZHENGZHOU , CN) observed 1700 UTC 24 March 2019
Temperature: 12.0°C (54°F)
Dewpoint: 0.0°C (32°F) [RH = 44%]
Pressure (altimeter): 29.94 inches Hg (1014.0 mb)
Winds: from the SSW (200 degrees) at 7 MPH (6 knots; 3.1 m/s)
Visibility: 6 or more miles (10+ km)
Ceiling: ceiling and visibility are OK
Clouds: unknown
Weather: no significant weather observed at this time

METAR text: ZHCC 241600Z 21003MPS CAVOK 12/M00 Q1015 NOSIG
Conditions at: ZHCC (ZHENGZHOU , CN) observed 1600 UTC 24 March 2019
Temperature: 12.0°C (54°F)
Dewpoint: 0.0°C (32°F) [RH = 44%]
Pressure (altimeter): 29.97 inches Hg (1015.0 mb)
Winds: from the SSW (210 degrees) at 7 MPH (6 knots; 3.1 m/s)
Visibility: 6 or more miles (10+ km)
Ceiling: ceiling and visibility are OK
Clouds: unknown
Weather: no significant weather observed at this time

METAR text: ZHCC 241500Z 21004MPS 170V240 CAVOK 13/00 Q1015 NOSIG
Conditions at: ZHCC (ZHENGZHOU , CN) observed 1500 UTC 24 March 2019
Temperature: 13.0°C (55°F)
Dewpoint: 0.0°C (32°F) [RH = 41%]
Pressure (altimeter): 29.97 inches Hg (1015.0 mb)
Winds: from the SSW (210 degrees) at 9 MPH (8 knots; 4.1 m/s)
Visibility: 6 or more miles (10+ km)
Ceiling: ceiling and visibility are OK
Clouds: unknown
Weather: no significant weather observed at this time

METAR text: ZHCC 241400Z 20003MPS 160V250 CAVOK 14/02 Q1016 NOSIG
Conditions at: ZHCC (ZHENGZHOU , CN) observed 1400 UTC 24 March 2019
Temperature: 14.0°C (57°F)
Dewpoint: 2.0°C (36°F) [RH = 44%]
Pressure (altimeter): 30.00 inches Hg (1016.0 mb)
Winds: from the SSW (200 degrees) at 7 MPH (6 knots; 3.1 m/s)
Visibility: 6 or more miles (10+ km)
Ceiling: ceiling and visibility are OK
Clouds: unknown
Weather: no significant weather observed at this time

METAR text: ZHCC 241300Z 21004MPS 180V250 CAVOK 14/01 Q1016 NOSIG
Conditions at: ZHCC (ZHENGZHOU , CN) observed 1300 UTC 24 March 2019
Temperature: 14.0°C (57°F)
Dewpoint: 1.0°C (34°F) [RH = 41%]
Pressure (altimeter): 30.00 inches Hg (1016.0 mb)
Winds: from the SSW (210 degrees) at 9 MPH (8 knots; 4.1 m/s)
Visibility: 6 or more miles (10+ km)
Ceiling: ceiling and visibility are OK
Clouds: unknown
Weather: no significant weather observed at this time

METAR text: ZHCC 241200Z 19004MPS 150V230 CAVOK 15/01 Q1015 NOSIG
Conditions at: ZHCC (ZHENGZHOU , CN) observed 1200 UTC 24 March 2019
Temperature: 15.0°C (59°F)
Dewpoint: 1.0°C (34°F) [RH = 39%]
Pressure (altimeter): 29.97 inches Hg (1015.0 mb)
Winds: from the S (190 degrees) at 9 MPH (8 knots; 4.1 m/s)
Visibility: 6 or more miles (10+ km)
Ceiling: ceiling and visibility are OK
Clouds: unknown
Weather: no significant weather observed at this time

METAR text: ZHCC 241100Z 19003MPS 160V220 CAVOK 16/M01 Q1015 NOSIG
Conditions at: ZHCC (ZHENGZHOU , CN) observed 1100 UTC 24 March 2019
Temperature: 16.0°C (61°F)
Dewpoint: -1.0°C (30°F) [RH = 31%]
Pressure (altimeter): 29.97 inches Hg (1015.0 mb)
Winds: from the S (190 degrees) at 7 MPH (6 knots; 3.1 m/s)
Visibility: 6 or more miles (10+ km)
Ceiling: ceiling and visibility are OK
Clouds: unknown
Weather: no significant weather observed at this time

METAR text: ZHCC 241000Z 19003MPS 160V240 CAVOK 17/M01 Q1014 NOSIG
Conditions at: ZHCC (ZHENGZHOU , CN) observed 1000 UTC 24 March 2019
Temperature: 17.0°C (63°F)
Dewpoint: -1.0°C (30°F) [RH = 29%]
Pressure (altimeter): 29.94 inches Hg (1014.0 mb)
Winds: from the S (190 degrees) at 7 MPH (6 knots; 3.1 m/s)
Visibility: 6 or more miles (10+ km)
Ceiling: ceiling and visibility are OK
Clouds: unknown
Weather: no significant weather observed at this time

METAR text: ZHCC 240900Z 18004MPS 140V230 CAVOK 18/M01 Q1014 NOSIG
Conditions at: ZHCC (ZHENGZHOU , CN) observed 0900 UTC 24 March 2019
Temperature: 18.0°C (64°F)
Dewpoint: -1.0°C (30°F) [RH = 28%]
Pressure (altimeter): 29.94 inches Hg (1014.0 mb)
Winds: from the S (180 degrees) at 9 MPH (8 knots; 4.1 m/s)
Visibility: 6 or more miles (10+ km)
Ceiling: ceiling and visibility are OK
Clouds: unknown
Weather: no significant weather observed at this time

METAR text: ZHCC 240800Z 18004MPS 140V230 7000 NSC 19/01 Q1014 NOSIG
Conditions at: ZHCC (ZHENGZHOU , CN) observed 0800 UTC 24 March 2019
Temperature: 19.0°C (66°F)
Dewpoint: 1.0°C (34°F) [RH = 30%]
Pressure (altimeter): 29.94 inches Hg (1014.0 mb)
Winds: from the S (180 degrees) at 9 MPH (8 knots; 4.1 m/s)
Visibility: 4 miles ( 7 km)
Ceiling: at least 12,000 feet AGL
Clouds: sky clear below 12,000 feet AGL
Weather: no significant weather observed at this time

Forecast for: ZHCC (ZHENGZHOU , CN)
Text: TAF ZHCC 251503Z 2518/2618 24004MPS 8000 NSC TX26/2607Z TN09/2522Z
Forecast period: 1800 UTC 25 March 2019 to 1800 UTC 26 March 2019
Forecast type: FROM: standard forecast or significant change
Winds: from the WSW (240 degrees) at 9 MPH (8 knots; 4.1 m/s)
Visibility: 5 miles (8 km)
Ceiling: unknown
Clouds: missing
Weather: no significant weather forecast for this period